sensor_id;sensor_type;location;lat;lon;timestamp;P1;durP1;ratioP1;P2;durP2;ratioP2
944;SDS011;459;48.676;9.034;2024-03-06T00:00:04;2.90;;;2.70;;
944;SDS011;459;48.676;9.034;2024-03-06T00:02:30;3.37;;;2.80;;
944;SDS011;459;48.676;9.034;2024-03-06T00:04:55;3.53;;;3.03;;
944;SDS011;459;48.676;9.034;2024-03-06T00:07:20;3.27;;;3.03;;
944;SDS011;459;48.676;9.034;2024-03-06T00:09:45;2.97;;;2.77;;
944;SDS011;459;48.676;9.034;2024-03-06T00:12:11;3.97;;;3.67;;
944;SDS011;459;48.676;9.034;2024-03-06T00:14:36;3.87;;;3.57;;
944;SDS011;459;48.676;9.034;2024-03-06T00:17:01;3.50;;;3.13;;
944;SDS011;459;48.676;9.034;2024-03-06T00:19:29;3.70;;;3.40;;
944;SDS011;459;48.676;9.034;2024-03-06T00:21:54;4.33;;;3.33;;
944;SDS011;459;48.676;9.034;2024-03-06T00:24:19;4.82;;;3.42;;
944;SDS011;459;48.676;9.034;2024-03-06T00:26:45;8.40;;;3.53;;
944;SDS011;459;48.676;9.034;2024-03-06T00:29:10;3.47;;;3.17;;
944;SDS011;459;48.676;9.034;2024-03-06T00:31:36;4.40;;;3.40;;
944;SDS011;459;48.676;9.034;2024-03-06T00:34:01;5.10;;;4.60;;
944;SDS011;459;48.676;9.034;2024-03-06T00:36:26;6.73;;;5.00;;
944;SDS011;459;48.676;9.034;2024-03-06T00:38:51;6.18;;;5.00;;
944;SDS011;459;48.676;9.034;2024-03-06T00:41:16;4.90;;;4.50;;
944;SDS011;459;48.676;9.034;2024-03-06T00:43:41;5.07;;;4.30;;
944;SDS011;459;48.676;9.034;2024-03-06T00:46:07;7.17;;;6.57;;
944;SDS011;459;48.676;9.034;2024-03-06T00:48:32;5.70;;;5.17;;
944;SDS011;459;48.676;9.034;2024-03-06T00:50:57;4.60;;;4.20;;
944;SDS011;459;48.676;9.034;2024-03-06T00:53:23;6.60;;;4.70;;
944;SDS011;459;48.676;9.034;2024-03-06T00:55:49;5.40;;;4.90;;
944;SDS011;459;48.676;9.034;2024-03-06T00:58:14;5.22;;;4.82;;
944;SDS011;459;48.676;9.034;2024-03-06T01:00:39;8.27;;;5.60;;
944;SDS011;459;48.676;9.034;2024-03-06T01:03:04;7.20;;;4.63;;
944;SDS011;459;48.676;9.034;2024-03-06T01:05:30;5.60;;;4.93;;
944;SDS011;459;48.676;9.034;2024-03-06T01:07:55;4.97;;;4.47;;
944;SDS011;459;48.676;9.034;2024-03-06T01:10:22;4.40;;;4.00;;
944;SDS011;459;48.676;9.034;2024-03-06T01:12:47;4.30;;;3.90;;
944;SDS011;459;48.676;9.034;2024-03-06T01:15:12;4.30;;;4.00;;
944;SDS011;459;48.676;9.034;2024-03-06T01:17:38;3.97;;;3.53;;
944;SDS011;459;48.676;9.034;2024-03-06T01:20:03;4.47;;;4.07;;
944;SDS011;459;48.676;9.034;2024-03-06T01:22:31;4.80;;;4.30;;
944;SDS011;459;48.676;9.034;2024-03-06T01:24:57;4.43;;;4.03;;
944;SDS011;459;48.676;9.034;2024-03-06T01:27:22;3.90;;;3.60;;
944;SDS011;459;48.676;9.034;2024-03-06T01:29:47;4.53;;;4.03;;
944;SDS011;459;48.676;9.034;2024-03-06T01:32:12;6.80;;;5.63;;
944;SDS011;459;48.676;9.034;2024-03-06T01:34:38;7.00;;;6.10;;
944;SDS011;459;48.676;9.034;2024-03-06T01:37:03;10.90;;;6.57;;
944;SDS011;459;48.676;9.034;2024-03-06T01:39:28;8.25;;;6.97;;
944;SDS011;459;48.676;9.034;2024-03-06T01:41:53;7.80;;;7.00;;
944;SDS011;459;48.676;9.034;2024-03-06T01:44:18;8.20;;;7.32;;
944;SDS011;459;48.676;9.034;2024-03-06T01:46:44;8.40;;;7.60;;
944;SDS011;459;48.676;9.034;2024-03-06T01:49:10;8.00;;;7.03;;
944;SDS011;459;48.676;9.034;2024-03-06T01:51:35;6.37;;;5.77;;
944;SDS011;459;48.676;9.034;2024-03-06T01:54:01;7.93;;;6.40;;
944;SDS011;459;48.676;9.034;2024-03-06T01:56:28;6.50;;;4.83;;
944;SDS011;459;48.676;9.034;2024-03-06T01:58:54;4.80;;;4.40;;
944;SDS011;459;48.676;9.034;2024-03-06T02:01:19;5.27;;;4.83;;
944;SDS011;459;48.676;9.034;2024-03-06T02:03:46;5.70;;;4.50;;
944;SDS011;459;48.676;9.034;2024-03-06T02:06:12;5.13;;;4.63;;
944;SDS011;459;48.676;9.034;2024-03-06T02:08:38;5.53;;;4.93;;
944;SDS011;459;48.676;9.034;2024-03-06T02:11:03;4.60;;;4.20;;
944;SDS011;459;48.676;9.034;2024-03-06T02:13:29;5.50;;;4.60;;
944;SDS011;459;48.676;9.034;2024-03-06T02:15:54;8.80;;;5.80;;
944;SDS011;459;48.676;9.034;2024-03-06T02:18:20;6.20;;;5.70;;
944;SDS011;459;48.676;9.034;2024-03-06T02:20:46;9.17;;;6.77;;
944;SDS011;459;48.676;9.034;2024-03-06T02:23:12;6.53;;;5.00;;
944;SDS011;459;48.676;9.034;2024-03-06T02:25:37;5.97;;;5.00;;
944;SDS011;459;48.676;9.034;2024-03-06T02:28:02;4.90;;;4.23;;
944;SDS011;459;48.676;9.034;2024-03-06T02:30:27;4.43;;;4.00;;
944;SDS011;459;48.676;9.034;2024-03-06T02:32:52;6.33;;;5.73;;
944;SDS011;459;48.676;9.034;2024-03-06T02:35:18;10.37;;;4.50;;
944;SDS011;459;48.676;9.034;2024-03-06T02:37:43;6.50;;;5.53;;
944;SDS011;459;48.676;9.034;2024-03-06T02:40:09;5.17;;;4.40;;
944;SDS011;459;48.676;9.034;2024-03-06T02:42:35;5.20;;;4.70;;
944;SDS011;459;48.676;9.034;2024-03-06T02:45:00;4.70;;;4.30;;
944;SDS011;459;48.676;9.034;2024-03-06T02:47:25;5.00;;;4.10;;
944;SDS011;459;48.676;9.034;2024-03-06T02:49:51;5.07;;;4.30;;
944;SDS011;459;48.676;9.034;2024-03-06T02:52:16;4.07;;;3.70;;
944;SDS011;459;48.676;9.034;2024-03-06T02:54:41;4.30;;;3.87;;
944;SDS011;459;48.676;9.034;2024-03-06T02:57:07;7.17;;;4.50;;
944;SDS011;459;48.676;9.034;2024-03-06T02:59:32;6.00;;;4.67;;
944;SDS011;459;48.676;9.034;2024-03-06T03:02:16;4.23;;;3.93;;
944;SDS011;459;48.676;9.034;2024-03-06T03:04:41;4.70;;;3.73;;
944;SDS011;459;48.676;9.034;2024-03-06T03:07:06;3.90;;;3.40;;
944;SDS011;459;48.676;9.034;2024-03-06T03:09:32;4.57;;;3.90;;
944;SDS011;459;48.676;9.034;2024-03-06T03:11:57;4.40;;;4.00;;
944;SDS011;459;48.676;9.034;2024-03-06T03:14:22;5.90;;;4.20;;
944;SDS011;459;48.676;9.034;2024-03-06T03:16:47;4.50;;;3.63;;
944;SDS011;459;48.676;9.034;2024-03-06T03:19:12;8.60;;;4.27;;
944;SDS011;459;48.676;9.034;2024-03-06T03:21:37;3.33;;;3.03;;
944;SDS011;459;48.676;9.034;2024-03-06T03:24:04;4.53;;;3.93;;
944;SDS011;459;48.676;9.034;2024-03-06T03:26:29;5.87;;;4.00;;
944;SDS011;459;48.676;9.034;2024-03-06T03:28:54;5.80;;;4.10;;
944;SDS011;459;48.676;9.034;2024-03-06T03:31:20;4.03;;;3.57;;
944;SDS011;459;48.676;9.034;2024-03-06T03:33:46;3.90;;;3.50;;
944;SDS011;459;48.676;9.034;2024-03-06T03:36:11;3.43;;;3.13;;
944;SDS011;459;48.676;9.034;2024-03-06T03:38:39;4.37;;;3.53;;
944;SDS011;459;48.676;9.034;2024-03-06T03:41:11;4.17;;;3.10;;
944;SDS011;459;48.676;9.034;2024-03-06T03:43:38;4.83;;;4.27;;
944;SDS011;459;48.676;9.034;2024-03-06T03:46:04;4.10;;;3.80;;
944;SDS011;459;48.676;9.034;2024-03-06T03:48:29;4.63;;;4.13;;
944;SDS011;459;48.676;9.034;2024-03-06T03:50:54;5.73;;;4.63;;
944;SDS011;459;48.676;9.034;2024-03-06T03:53:19;5.05;;;4.28;;
944;SDS011;459;48.676;9.034;2024-03-06T03:55:44;4.43;;;3.97;;
944;SDS011;459;48.676;9.034;2024-03-06T03:58:10;4.45;;;4.05;;
944;SDS011;459;48.676;9.034;2024-03-06T04:00:35;5.37;;;4.33;;
944;SDS011;459;48.676;9.034;2024-03-06T04:03:00;4.07;;;3.77;;
944;SDS011;459;48.676;9.034;2024-03-06T04:05:25;4.70;;;3.70;;
944;SDS011;459;48.676;9.034;2024-03-06T04:07:50;7.83;;;3.60;;
944;SDS011;459;48.676;9.034;2024-03-06T04:10:16;3.83;;;3.17;;
944;SDS011;459;48.676;9.034;2024-03-06T04:12:41;4.80;;;3.77;;
944;SDS011;459;48.676;9.034;2024-03-06T04:15:06;5.37;;;3.70;;
944;SDS011;459;48.676;9.034;2024-03-06T04:17:33;5.80;;;4.40;;
944;SDS011;459;48.676;9.034;2024-03-06T04:19:58;3.83;;;3.30;;
944;SDS011;459;48.676;9.034;2024-03-06T04:22:24;4.80;;;4.27;;
944;SDS011;459;48.676;9.034;2024-03-06T04:24:49;4.37;;;3.93;;
944;SDS011;459;48.676;9.034;2024-03-06T04:27:14;4.53;;;3.87;;
944;SDS011;459;48.676;9.034;2024-03-06T04:29:41;4.60;;;3.87;;
944;SDS011;459;48.676;9.034;2024-03-06T04:32:06;4.77;;;4.13;;
944;SDS011;459;48.676;9.034;2024-03-06T04:34:31;4.10;;;3.43;;
944;SDS011;459;48.676;9.034;2024-03-06T04:36:57;4.43;;;4.03;;
944;SDS011;459;48.676;9.034;2024-03-06T04:39:22;4.57;;;4.10;;
944;SDS011;459;48.676;9.034;2024-03-06T04:41:47;7.03;;;4.20;;
944;SDS011;459;48.676;9.034;2024-03-06T04:44:12;3.77;;;3.47;;
944;SDS011;459;48.676;9.034;2024-03-06T04:46:37;7.80;;;4.07;;
944;SDS011;459;48.676;9.034;2024-03-06T04:49:02;6.60;;;4.30;;
944;SDS011;459;48.676;9.034;2024-03-06T04:51:28;5.00;;;4.27;;
944;SDS011;459;48.676;9.034;2024-03-06T04:53:53;4.70;;;4.20;;
944;SDS011;459;48.676;9.034;2024-03-06T04:56:18;5.20;;;3.97;;
944;SDS011;459;48.676;9.034;2024-03-06T04:58:45;6.17;;;3.90;;
944;SDS011;459;48.676;9.034;2024-03-06T05:01:11;5.33;;;4.27;;
944;SDS011;459;48.676;9.034;2024-03-06T05:03:36;5.77;;;4.60;;
944;SDS011;459;48.676;9.034;2024-03-06T05:06:03;5.67;;;5.07;;
944;SDS011;459;48.676;9.034;2024-03-06T05:08:28;6.33;;;4.20;;
944;SDS011;459;48.676;9.034;2024-03-06T05:10:55;5.03;;;4.63;;
944;SDS011;459;48.676;9.034;2024-03-06T05:13:20;5.77;;;5.17;;
944;SDS011;459;48.676;9.034;2024-03-06T05:15:45;5.30;;;4.80;;
944;SDS011;459;48.676;9.034;2024-03-06T05:18:10;5.73;;;4.60;;
944;SDS011;459;48.676;9.034;2024-03-06T05:20:35;5.83;;;5.23;;
944;SDS011;459;48.676;9.034;2024-03-06T05:23:00;5.77;;;5.07;;
944;SDS011;459;48.676;9.034;2024-03-06T05:25:25;8.17;;;5.00;;
944;SDS011;459;48.676;9.034;2024-03-06T05:27:51;5.73;;;5.00;;
944;SDS011;459;48.676;9.034;2024-03-06T05:30:16;5.97;;;5.10;;
944;SDS011;459;48.676;9.034;2024-03-06T05:32:41;6.10;;;5.23;;
944;SDS011;459;48.676;9.034;2024-03-06T05:35:07;6.93;;;4.93;;
944;SDS011;459;48.676;9.034;2024-03-06T05:37:34;5.57;;;4.80;;
944;SDS011;459;48.676;9.034;2024-03-06T05:40:00;7.40;;;5.00;;
944;SDS011;459;48.676;9.034;2024-03-06T05:42:25;8.33;;;5.03;;
944;SDS011;459;48.676;9.034;2024-03-06T05:44:50;8.20;;;5.53;;
944;SDS011;459;48.676;9.034;2024-03-06T05:47:19;10.03;;;4.87;;
944;SDS011;459;48.676;9.034;2024-03-06T05:49:44;7.13;;;5.47;;
944;SDS011;459;48.676;9.034;2024-03-06T05:52:10;7.20;;;5.40;;
944;SDS011;459;48.676;9.034;2024-03-06T05:54:35;9.93;;;5.90;;
944;SDS011;459;48.676;9.034;2024-03-06T05:57:02;5.93;;;4.90;;
944;SDS011;459;48.676;9.034;2024-03-06T05:59:28;10.90;;;5.80;;
944;SDS011;459;48.676;9.034;2024-03-06T06:01:53;7.37;;;6.13;;
944;SDS011;459;48.676;9.034;2024-03-06T06:04:19;7.60;;;5.70;;
944;SDS011;459;48.676;9.034;2024-03-06T06:06:44;8.10;;;5.10;;
944;SDS011;459;48.676;9.034;2024-03-06T06:09:10;9.17;;;7.00;;
944;SDS011;459;48.676;9.034;2024-03-06T06:11:40;6.00;;;5.50;;
944;SDS011;459;48.676;9.034;2024-03-06T06:14:05;7.53;;;6.30;;
944;SDS011;459;48.676;9.034;2024-03-06T06:16:37;6.33;;;5.70;;
944;SDS011;459;48.676;9.034;2024-03-06T06:19:02;8.03;;;5.30;;
944;SDS011;459;48.676;9.034;2024-03-06T06:21:28;7.83;;;5.87;;
944;SDS011;459;48.676;9.034;2024-03-06T06:23:53;8.90;;;6.00;;
944;SDS011;459;48.676;9.034;2024-03-06T06:26:19;8.70;;;6.30;;
944;SDS011;459;48.676;9.034;2024-03-06T06:28:45;7.03;;;5.73;;
944;SDS011;459;48.676;9.034;2024-03-06T06:31:11;6.83;;;5.63;;
944;SDS011;459;48.676;9.034;2024-03-06T06:33:36;8.27;;;6.17;;
944;SDS011;459;48.676;9.034;2024-03-06T06:36:01;10.23;;;5.90;;
944;SDS011;459;48.676;9.034;2024-03-06T06:38:27;7.07;;;6.10;;
944;SDS011;459;48.676;9.034;2024-03-06T06:40:52;8.97;;;6.33;;
944;SDS011;459;48.676;9.034;2024-03-06T06:43:17;7.10;;;5.87;;
944;SDS011;459;48.676;9.034;2024-03-06T06:45:42;9.70;;;5.93;;
944;SDS011;459;48.676;9.034;2024-03-06T06:48:08;6.90;;;5.50;;
944;SDS011;459;48.676;9.034;2024-03-06T06:50:34;8.10;;;5.60;;
944;SDS011;459;48.676;9.034;2024-03-06T06:52:59;7.50;;;6.27;;
944;SDS011;459;48.676;9.034;2024-03-06T06:55:25;6.40;;;5.43;;
944;SDS011;459;48.676;9.034;2024-03-06T06:57:50;6.40;;;5.50;;
944;SDS011;459;48.676;9.034;2024-03-06T07:00:16;5.93;;;5.40;;
944;SDS011;459;48.676;9.034;2024-03-06T07:02:43;8.37;;;5.27;;
944;SDS011;459;48.676;9.034;2024-03-06T07:05:10;6.93;;;4.90;;
944;SDS011;459;48.676;9.034;2024-03-06T07:07:35;7.00;;;4.60;;
944;SDS011;459;48.676;9.034;2024-03-06T07:10:01;4.83;;;4.13;;
944;SDS011;459;48.676;9.034;2024-03-06T07:12:26;4.97;;;4.00;;
944;SDS011;459;48.676;9.034;2024-03-06T07:14:51;7.30;;;5.10;;
944;SDS011;459;48.676;9.034;2024-03-06T07:17:16;6.07;;;4.33;;
944;SDS011;459;48.676;9.034;2024-03-06T07:19:42;5.13;;;4.17;;
944;SDS011;459;48.676;9.034;2024-03-06T07:22:07;6.73;;;5.30;;
944;SDS011;459;48.676;9.034;2024-03-06T07:24:32;5.67;;;5.03;;
944;SDS011;459;48.676;9.034;2024-03-06T07:26:57;8.83;;;5.77;;
944;SDS011;459;48.676;9.034;2024-03-06T07:29:23;5.30;;;4.30;;
944;SDS011;459;48.676;9.034;2024-03-06T07:31:48;5.57;;;4.90;;
944;SDS011;459;48.676;9.034;2024-03-06T07:34:13;5.30;;;4.50;;
944;SDS011;459;48.676;9.034;2024-03-06T07:36:39;6.93;;;4.80;;
944;SDS011;459;48.676;9.034;2024-03-06T07:39:04;4.47;;;3.93;;
944;SDS011;459;48.676;9.034;2024-03-06T07:41:30;7.23;;;4.73;;
944;SDS011;459;48.676;9.034;2024-03-06T07:43:56;7.30;;;4.83;;
944;SDS011;459;48.676;9.034;2024-03-06T07:46:21;5.53;;;4.93;;
944;SDS011;459;48.676;9.034;2024-03-06T07:48:46;6.43;;;4.20;;
944;SDS011;459;48.676;9.034;2024-03-06T07:51:12;8.17;;;4.37;;
944;SDS011;459;48.676;9.034;2024-03-06T07:53:37;5.43;;;4.70;;
944;SDS011;459;48.676;9.034;2024-03-06T07:56:03;7.07;;;5.33;;
944;SDS011;459;48.676;9.034;2024-03-06T07:58:28;5.07;;;4.50;;
944;SDS011;459;48.676;9.034;2024-03-06T08:00:53;5.30;;;4.63;;
944;SDS011;459;48.676;9.034;2024-03-06T08:03:20;8.03;;;5.23;;
944;SDS011;459;48.676;9.034;2024-03-06T08:05:45;7.63;;;5.67;;
944;SDS011;459;48.676;9.034;2024-03-06T08:08:11;5.77;;;4.67;;
944;SDS011;459;48.676;9.034;2024-03-06T08:10:36;8.10;;;5.30;;
944;SDS011;459;48.676;9.034;2024-03-06T08:13:01;5.87;;;5.27;;
944;SDS011;459;48.676;9.034;2024-03-06T08:15:26;6.00;;;4.93;;
944;SDS011;459;48.676;9.034;2024-03-06T08:17:51;5.60;;;4.97;;
944;SDS011;459;48.676;9.034;2024-03-06T08:20:17;7.00;;;5.37;;
944;SDS011;459;48.676;9.034;2024-03-06T08:22:42;6.50;;;4.97;;
944;SDS011;459;48.676;9.034;2024-03-06T08:25:08;6.60;;;5.23;;
944;SDS011;459;48.676;9.034;2024-03-06T08:27:34;6.67;;;5.90;;
944;SDS011;459;48.676;9.034;2024-03-06T08:30:00;6.40;;;5.90;;
944;SDS011;459;48.676;9.034;2024-03-06T08:32:25;9.20;;;7.10;;
944;SDS011;459;48.676;9.034;2024-03-06T08:34:50;6.63;;;6.03;;
944;SDS011;459;48.676;9.034;2024-03-06T08:37:15;8.70;;;5.90;;
944;SDS011;459;48.676;9.034;2024-03-06T08:39:40;6.43;;;5.75;;
944;SDS011;459;48.676;9.034;2024-03-06T08:42:06;5.83;;;5.33;;
944;SDS011;459;48.676;9.034;2024-03-06T08:44:31;6.30;;;5.70;;
944;SDS011;459;48.676;9.034;2024-03-06T08:46:56;7.97;;;5.37;;
944;SDS011;459;48.676;9.034;2024-03-06T08:49:21;6.70;;;5.80;;
944;SDS011;459;48.676;9.034;2024-03-06T08:51:46;7.50;;;6.43;;
944;SDS011;459;48.676;9.034;2024-03-06T08:54:11;7.47;;;6.07;;
944;SDS011;459;48.676;9.034;2024-03-06T08:56:36;5.83;;;4.57;;
944;SDS011;459;48.676;9.034;2024-03-06T08:59:02;5.43;;;4.80;;
944;SDS011;459;48.676;9.034;2024-03-06T09:01:27;5.43;;;4.67;;
944;SDS011;459;48.676;9.034;2024-03-06T09:03:52;5.33;;;4.83;;
944;SDS011;459;48.676;9.034;2024-03-06T09:06:18;6.20;;;5.60;;
944;SDS011;459;48.676;9.034;2024-03-06T09:08:43;4.30;;;3.90;;
944;SDS011;459;48.676;9.034;2024-03-06T09:11:08;5.80;;;5.03;;
944;SDS011;459;48.676;9.034;2024-03-06T09:13:33;5.73;;;5.07;;
944;SDS011;459;48.676;9.034;2024-03-06T09:15:58;10.13;;;5.47;;
944;SDS011;459;48.676;9.034;2024-03-06T09:18:24;6.73;;;4.63;;
944;SDS011;459;48.676;9.034;2024-03-06T09:20:49;6.20;;;5.10;;
944;SDS011;459;48.676;9.034;2024-03-06T09:23:14;5.87;;;5.10;;
944;SDS011;459;48.676;9.034;2024-03-06T09:25:40;6.33;;;5.83;;
944;SDS011;459;48.676;9.034;2024-03-06T09:28:06;11.13;;;5.20;;
944;SDS011;459;48.676;9.034;2024-03-06T09:30:33;8.20;;;6.00;;
944;SDS011;459;48.676;9.034;2024-03-06T09:32:58;7.83;;;6.50;;
944;SDS011;459;48.676;9.034;2024-03-06T09:35:23;6.90;;;6.20;;
944;SDS011;459;48.676;9.034;2024-03-06T09:37:49;6.73;;;6.10;;
944;SDS011;459;48.676;9.034;2024-03-06T09:40:21;6.70;;;6.10;;
944;SDS011;459;48.676;9.034;2024-03-06T09:42:47;7.90;;;6.47;;
944;SDS011;459;48.676;9.034;2024-03-06T09:45:12;6.33;;;5.73;;
944;SDS011;459;48.676;9.034;2024-03-06T09:47:38;7.37;;;6.67;;
944;SDS011;459;48.676;9.034;2024-03-06T09:50:03;7.27;;;6.63;;
944;SDS011;459;48.676;9.034;2024-03-06T09:52:31;9.23;;;7.43;;
944;SDS011;459;48.676;9.034;2024-03-06T09:54:56;9.33;;;8.37;;
944;SDS011;459;48.676;9.034;2024-03-06T09:57:21;8.33;;;7.43;;
944;SDS011;459;48.676;9.034;2024-03-06T09:59:47;9.37;;;8.10;;
944;SDS011;459;48.676;9.034;2024-03-06T10:02:18;11.30;;;8.33;;
944;SDS011;459;48.676;9.034;2024-03-06T10:04:43;11.07;;;9.17;;
944;SDS011;459;48.676;9.034;2024-03-06T10:07:09;10.73;;;9.63;;
944;SDS011;459;48.676;9.034;2024-03-06T10:09:35;9.93;;;8.93;;
944;SDS011;459;48.676;9.034;2024-03-06T10:12:00;12.10;;;8.67;;
944;SDS011;459;48.676;9.034;2024-03-06T10:14:25;8.17;;;7.37;;
944;SDS011;459;48.676;9.034;2024-03-06T10:16:54;9.40;;;8.50;;
944;SDS011;459;48.676;9.034;2024-03-06T10:19:21;10.13;;;7.37;;
944;SDS011;459;48.676;9.034;2024-03-06T10:21:47;10.03;;;7.90;;
944;SDS011;459;48.676;9.034;2024-03-06T10:26:45;9.30;;;8.30;;
944;SDS011;459;48.676;9.034;2024-03-06T10:29:10;12.40;;;10.17;;
944;SDS011;459;48.676;9.034;2024-03-06T10:31:35;10.77;;;8.77;;
944;SDS011;459;48.676;9.034;2024-03-06T10:34:00;10.17;;;8.90;;
944;SDS011;459;48.676;9.034;2024-03-06T10:36:26;10.37;;;7.87;;
944;SDS011;459;48.676;9.034;2024-03-06T10:38:51;10.93;;;8.10;;
944;SDS011;459;48.676;9.034;2024-03-06T10:41:18;11.60;;;9.63;;
944;SDS011;459;48.676;9.034;2024-03-06T10:43:47;10.40;;;9.30;;
944;SDS011;459;48.676;9.034;2024-03-06T10:46:15;9.53;;;8.43;;
944;SDS011;459;48.676;9.034;2024-03-06T10:48:44;10.27;;;9.27;;
944;SDS011;459;48.676;9.034;2024-03-06T10:51:10;11.53;;;10.33;;
944;SDS011;459;48.676;9.034;2024-03-06T10:53:38;11.77;;;10.10;;
944;SDS011;459;48.676;9.034;2024-03-06T10:56:04;13.13;;;9.77;;
944;SDS011;459;48.676;9.034;2024-03-06T10:58:33;11.00;;;9.07;;
944;SDS011;459;48.676;9.034;2024-03-06T11:00:59;15.87;;;10.50;;
944;SDS011;459;48.676;9.034;2024-03-06T11:03:25;12.73;;;10.70;;
944;SDS011;459;48.676;9.034;2024-03-06T11:05:51;12.80;;;10.60;;
944;SDS011;459;48.676;9.034;2024-03-06T11:08:16;12.73;;;10.87;;
944;SDS011;459;48.676;9.034;2024-03-06T11:10:42;12.50;;;10.70;;
944;SDS011;459;48.676;9.034;2024-03-06T11:15:45;14.37;;;10.70;;
944;SDS011;459;48.676;9.034;2024-03-06T11:23:25;12.87;;;10.83;;
944;SDS011;459;48.676;9.034;2024-03-06T11:28:19;15.10;;;11.57;;
944;SDS011;459;48.676;9.034;2024-03-06T11:30:44;18.03;;;13.60;;
944;SDS011;459;48.676;9.034;2024-03-06T11:33:11;15.73;;;12.60;;
944;SDS011;459;48.676;9.034;2024-03-06T11:35:37;17.40;;;13.67;;
944;SDS011;459;48.676;9.034;2024-03-06T11:38:04;15.40;;;13.80;;
944;SDS011;459;48.676;9.034;2024-03-06T11:40:31;17.47;;;13.37;;
944;SDS011;459;48.676;9.034;2024-03-06T11:42:56;18.00;;;12.57;;
944;SDS011;459;48.676;9.034;2024-03-06T11:45:21;18.60;;;13.73;;
944;SDS011;459;48.676;9.034;2024-03-06T11:47:56;17.87;;;14.57;;
944;SDS011;459;48.676;9.034;2024-03-06T11:50:22;20.57;;;15.30;;
944;SDS011;459;48.676;9.034;2024-03-06T11:52:48;18.60;;;14.20;;
944;SDS011;459;48.676;9.034;2024-03-06T11:55:14;17.07;;;14.20;;
944;SDS011;459;48.676;9.034;2024-03-06T11:57:40;24.23;;;16.10;;
944;SDS011;459;48.676;9.034;2024-03-06T12:00:05;19.67;;;14.00;;
944;SDS011;459;48.676;9.034;2024-03-06T12:02:32;18.83;;;14.90;;
944;SDS011;459;48.676;9.034;2024-03-06T12:04:57;15.30;;;12.30;;
944;SDS011;459;48.676;9.034;2024-03-06T12:07:27;20.27;;;14.30;;
944;SDS011;459;48.676;9.034;2024-03-06T12:09:52;16.13;;;13.57;;
944;SDS011;459;48.676;9.034;2024-03-06T12:12:18;19.40;;;13.50;;
944;SDS011;459;48.676;9.034;2024-03-06T12:14:43;16.40;;;13.63;;
944;SDS011;459;48.676;9.034;2024-03-06T12:17:12;19.13;;;13.57;;
944;SDS011;459;48.676;9.034;2024-03-06T12:19:39;22.60;;;14.60;;
944;SDS011;459;48.676;9.034;2024-03-06T12:22:06;21.80;;;14.17;;
944;SDS011;459;48.676;9.034;2024-03-06T12:24:33;22.17;;;16.03;;
944;SDS011;459;48.676;9.034;2024-03-06T12:27:02;22.77;;;15.57;;
944;SDS011;459;48.676;9.034;2024-03-06T12:29:29;21.20;;;13.90;;
944;SDS011;459;48.676;9.034;2024-03-06T12:31:55;25.50;;;15.63;;
944;SDS011;459;48.676;9.034;2024-03-06T12:34:22;18.70;;;14.10;;
944;SDS011;459;48.676;9.034;2024-03-06T12:36:47;20.00;;;14.33;;
944;SDS011;459;48.676;9.034;2024-03-06T12:39:14;19.30;;;14.37;;
944;SDS011;459;48.676;9.034;2024-03-06T12:41:42;19.50;;;14.90;;
944;SDS011;459;48.676;9.034;2024-03-06T12:44:07;20.53;;;15.63;;
944;SDS011;459;48.676;9.034;2024-03-06T12:46:32;20.20;;;14.83;;
944;SDS011;459;48.676;9.034;2024-03-06T12:48:58;22.73;;;14.40;;
944;SDS011;459;48.676;9.034;2024-03-06T12:51:23;18.13;;;14.17;;
944;SDS011;459;48.676;9.034;2024-03-06T12:53:48;21.67;;;14.33;;
944;SDS011;459;48.676;9.034;2024-03-06T12:56:13;21.30;;;16.53;;
944;SDS011;459;48.676;9.034;2024-03-06T12:58:38;20.57;;;14.73;;
944;SDS011;459;48.676;9.034;2024-03-06T13:01:04;20.70;;;15.90;;
944;SDS011;459;48.676;9.034;2024-03-06T13:03:30;18.30;;;13.70;;
944;SDS011;459;48.676;9.034;2024-03-06T13:05:56;20.93;;;14.97;;
944;SDS011;459;48.676;9.034;2024-03-06T13:08:21;19.33;;;12.47;;
944;SDS011;459;48.676;9.034;2024-03-06T13:10:46;19.70;;;13.70;;
944;SDS011;459;48.676;9.034;2024-03-06T13:13:11;18.13;;;14.13;;
944;SDS011;459;48.676;9.034;2024-03-06T13:15:37;17.67;;;13.70;;
944;SDS011;459;48.676;9.034;2024-03-06T13:18:02;18.27;;;14.30;;
944;SDS011;459;48.676;9.034;2024-03-06T13:20:30;14.97;;;12.30;;
944;SDS011;459;48.676;9.034;2024-03-06T13:22:56;18.30;;;12.60;;
944;SDS011;459;48.676;9.034;2024-03-06T13:25:21;20.17;;;13.70;;
944;SDS011;459;48.676;9.034;2024-03-06T13:27:46;18.77;;;13.40;;
944;SDS011;459;48.676;9.034;2024-03-06T13:30:12;17.10;;;13.47;;
944;SDS011;459;48.676;9.034;2024-03-06T13:32:38;19.33;;;14.40;;
944;SDS011;459;48.676;9.034;2024-03-06T13:35:04;17.20;;;13.67;;
944;SDS011;459;48.676;9.034;2024-03-06T13:37:31;18.37;;;13.13;;
944;SDS011;459;48.676;9.034;2024-03-06T13:39:56;19.00;;;13.83;;
944;SDS011;459;48.676;9.034;2024-03-06T13:42:25;21.97;;;13.97;;
944;SDS011;459;48.676;9.034;2024-03-06T13:44:50;17.03;;;12.97;;
944;SDS011;459;48.676;9.034;2024-03-06T13:47:15;19.40;;;15.23;;
944;SDS011;459;48.676;9.034;2024-03-06T13:49:44;18.87;;;13.33;;
944;SDS011;459;48.676;9.034;2024-03-06T13:52:09;16.27;;;13.47;;
944;SDS011;459;48.676;9.034;2024-03-06T13:54:38;24.90;;;16.63;;
944;SDS011;459;48.676;9.034;2024-03-06T13:57:04;19.23;;;14.10;;
944;SDS011;459;48.676;9.034;2024-03-06T13:59:33;20.70;;;15.17;;
944;SDS011;459;48.676;9.034;2024-03-06T14:01:58;19.23;;;15.07;;
944;SDS011;459;48.676;9.034;2024-03-06T14:04:24;20.07;;;13.80;;
944;SDS011;459;48.676;9.034;2024-03-06T14:06:49;19.80;;;15.23;;
944;SDS011;459;48.676;9.034;2024-03-06T14:09:15;20.03;;;14.30;;
944;SDS011;459;48.676;9.034;2024-03-06T14:11:40;18.73;;;14.80;;
944;SDS011;459;48.676;9.034;2024-03-06T14:14:05;20.17;;;14.60;;
944;SDS011;459;48.676;9.034;2024-03-06T14:16:30;21.33;;;14.97;;
944;SDS011;459;48.676;9.034;2024-03-06T14:18:56;22.20;;;16.07;;
944;SDS011;459;48.676;9.034;2024-03-06T14:21:21;20.63;;;16.17;;
944;SDS011;459;48.676;9.034;2024-03-06T14:23:46;18.23;;;14.40;;
944;SDS011;459;48.676;9.034;2024-03-06T14:26:11;20.27;;;15.70;;
944;SDS011;459;48.676;9.034;2024-03-06T14:28:36;16.03;;;13.80;;
944;SDS011;459;48.676;9.034;2024-03-06T14:31:03;20.80;;;16.17;;
944;SDS011;459;48.676;9.034;2024-03-06T14:33:28;20.80;;;15.30;;
944;SDS011;459;48.676;9.034;2024-03-06T14:35:53;19.97;;;15.07;;
944;SDS011;459;48.676;9.034;2024-03-06T14:38:19;20.33;;;15.70;;
944;SDS011;459;48.676;9.034;2024-03-06T14:40:44;24.27;;;18.57;;
944;SDS011;459;48.676;9.034;2024-03-06T14:43:09;20.93;;;15.40;;
944;SDS011;459;48.676;9.034;2024-03-06T14:45:35;32.57;;;23.03;;
944;SDS011;459;48.676;9.034;2024-03-06T14:48:06;23.90;;;18.33;;
944;SDS011;459;48.676;9.034;2024-03-06T14:50:31;19.80;;;16.40;;
944;SDS011;459;48.676;9.034;2024-03-06T14:52:56;22.23;;;14.67;;
944;SDS011;459;48.676;9.034;2024-03-06T14:55:22;16.77;;;13.50;;
944;SDS011;459;48.676;9.034;2024-03-06T14:57:47;17.80;;;13.37;;
944;SDS011;459;48.676;9.034;2024-03-06T15:00:12;20.53;;;14.63;;
944;SDS011;459;48.676;9.034;2024-03-06T15:02:39;21.23;;;14.90;;
944;SDS011;459;48.676;9.034;2024-03-06T15:05:04;16.73;;;13.57;;
944;SDS011;459;48.676;9.034;2024-03-06T15:07:30;21.83;;;15.60;;
944;SDS011;459;48.676;9.034;2024-03-06T15:09:55;18.23;;;14.57;;
944;SDS011;459;48.676;9.034;2024-03-06T15:12:22;16.90;;;13.50;;
944;SDS011;459;48.676;9.034;2024-03-06T15:14:48;17.80;;;14.07;;
944;SDS011;459;48.676;9.034;2024-03-06T15:17:13;19.60;;;15.10;;
944;SDS011;459;48.676;9.034;2024-03-06T15:19:39;16.93;;;13.43;;
944;SDS011;459;48.676;9.034;2024-03-06T15:22:05;16.67;;;13.20;;
944;SDS011;459;48.676;9.034;2024-03-06T15:24:30;16.40;;;13.10;;
944;SDS011;459;48.676;9.034;2024-03-06T15:26:55;16.43;;;13.37;;
944;SDS011;459;48.676;9.034;2024-03-06T15:29:21;19.10;;;13.17;;
944;SDS011;459;48.676;9.034;2024-03-06T15:31:46;16.83;;;12.07;;
944;SDS011;459;48.676;9.034;2024-03-06T15:34:11;16.73;;;13.50;;
944;SDS011;459;48.676;9.034;2024-03-06T15:36:37;17.33;;;14.07;;